SIPK1: Pottawatomie Creek nr Scipio 1SE

                                SHEF ID:       SIPK1     POTTAWATOMIE C NR SCIPIO, KS
STATION TYPE:

PRECIP STAGE RIV-FLOW BAT-LOAD
in ft cfs volt
Ccp-Rev Ccp-Rev Ccp-Rev Ccp-Rev
(America/Chicago)
06/22 00:00 ---- 4.14 160 12.73
06/22 01:00 ---- 4.16 164 12.73
06/22 02:00 ---- 4.18 169 12.65
06/22 03:00 ---- 4.21 175 12.65
06/22 04:00 ---- 4.24 181 12.65
06/22 05:00 ---- 4.31 195 12.65
06/22 06:00 ---- 4.39 212 12.65
06/22 07:00 ---- 4.49 237 12.57
06/22 08:00 ---- 4.58 262 12.57
06/22 09:00 ---- 4.67 287 12.65
06/22 10:00 ---- 4.76 304 12.97
06/22 11:00 ---- 4.84 318 13.13
06/22 12:00 ---- 4.91 331 13.21
06/22 13:00 ---- 4.95 339 ----
06/22 14:00 ---- 5.00 348 13.37
06/22 15:00 ---- 5.03 354 13.29
06/22 16:00 ---- 5.06 360 13.44
06/22 17:00 ---- 5.08 363 13.68
06/22 18:00 ---- 5.08 363 13.60
06/22 19:00 ---- 5.09 364 13.29
06/22 20:00 ---- 5.10 365 12.81
06/22 21:00 ---- 5.08 363 12.81
06/22 22:00 ---- 5.08 363 12.81
06/22 23:00 ---- 5.07 361 12.73
Data processed at Tue 23Jun2026 04:48 GMT

NOTICE: If you are parsing this page

Please convert to using our Data API. Starting early 2026 we will be migrating to: https://water.usace.army.mil with modern pages rendered in JavaScript. When this migration completes you will no longer be able to scrape this page! CWMSDataAPI (CDA)

Timeseries IDs (TSIDs)

TSIDs used from left to right in the data table
SCIP.Precip-Inc.Total.1Hour.1Hour.Ccp-Rev
SCIP.Stage.Inst.1Hour.0.Ccp-Rev
SCIP.Flow.Inst.1Hour.0.Ccp-Rev
SCIP.Volt-Battery Load.Inst.1Hour.0.Ccp-Rev

                            

All information presented herein is the property of the government of the United States of America and may be revised or deleted at any time without prior notice. Dissemination of this information without the expressed written consent of the Public Affairs Office, Tulsa District U.S. Army Corps of Engineers is strictly prohibited. These data are gathered electronically and, as presented, have NOT undergone any form of quality control. These data are NOT guaranteed to be valid or correct.